createdAt,value
2019-04-26T00:01:03.979Z,66.20
2019-04-26T00:03:41.349Z,66.60
2019-04-26T00:06:12.891Z,67.00
2019-04-26T00:08:45.204Z,67.20
2019-04-26T00:11:31.749Z,67.30
2019-04-26T00:14:19.256Z,68.50
2019-04-26T00:16:58.947Z,67.10
2019-04-26T00:19:29.137Z,67.40
2019-04-26T00:21:59.519Z,67.50
2019-04-26T00:24:29.631Z,68.00
2019-04-26T00:26:59.433Z,67.90
2019-04-26T00:29:29.193Z,68.40
2019-04-26T00:31:58.954Z,68.00
2019-04-26T00:34:28.774Z,68.00
2019-04-26T00:36:58.936Z,69.30
2019-04-26T00:39:28.773Z,70.40
2019-04-26T00:41:59.143Z,69.10
2019-04-26T00:44:30.417Z,69.50
2019-04-26T00:47:02.568Z,68.90
2019-04-26T00:49:43.399Z,69.20
2019-04-26T00:52:06.409Z,69.80
2019-04-26T00:54:36.574Z,68.60
2019-04-26T00:57:07.236Z,71.00
2019-04-26T00:59:39.009Z,69.00
2019-04-26T01:02:16.593Z,69.60
2019-04-26T01:04:46.494Z,69.20
2019-04-26T01:07:16.989Z,69.90
2019-04-26T01:09:46.856Z,69.70
2019-04-26T01:12:17.731Z,69.60
2019-04-26T01:14:47.866Z,70.10
2019-04-26T01:17:18.591Z,70.30
2019-04-26T01:19:49.365Z,70.30
2019-04-26T01:22:24.133Z,70.10
2019-04-26T01:24:55.679Z,70.60
2019-04-26T01:27:28.343Z,70.10
2019-04-26T01:30:02.583Z,70.60
2019-04-26T01:32:34.129Z,70.10
2019-04-26T01:35:04.271Z,70.60
2019-04-26T01:37:34.780Z,70.80
2019-04-26T01:40:09.553Z,70.20
2019-04-26T01:42:49.894Z,69.60
2019-04-26T01:45:30.462Z,70.00
2019-04-26T01:48:05.005Z,70.60
2019-04-26T01:50:36.062Z,70.30
2019-04-26T01:53:06.704Z,70.30
2019-04-26T01:55:36.604Z,70.20
2019-04-26T01:58:07.356Z,69.60
2019-04-26T02:00:56.638Z,69.60
2019-04-26T02:03:28.401Z,69.80
2019-04-26T02:05:58.544Z,70.90
2019-04-26T02:08:28.425Z,72.40
2019-04-26T02:10:58.355Z,74.60
2019-04-26T02:13:28.894Z,71.60
2019-04-26T02:15:59.012Z,71.80
2019-04-26T02:18:29.410Z,71.80
2019-04-26T02:21:14.220Z,71.00
2019-04-26T02:23:58.076Z,71.30
2019-04-26T02:26:35.644Z,71.40
2019-04-26T02:29:09.464Z,71.10
2019-04-26T02:31:42.640Z,72.30
2019-04-26T02:34:13.355Z,71.20
2019-04-26T02:36:56.942Z,71.40
2019-04-26T02:39:22.287Z,72.90
2019-04-26T02:41:56.349Z,72.80
2019-04-26T02:44:35.019Z,72.80
2019-04-26T02:47:34.138Z,74.80
2019-04-26T02:50:05.509Z,73.50
2019-04-26T02:52:53.425Z,72.10
2019-04-26T02:56:11.510Z,71.50
2019-04-26T02:59:09.682Z,72.30
2019-04-26T03:01:40.190Z,73.50
2019-04-26T03:04:10.121Z,72.80
2019-04-26T03:06:43.166Z,72.60
2019-04-26T03:09:14.549Z,72.60
2019-04-26T03:11:48.456Z,72.50
2019-04-26T03:14:44.316Z,72.80
2019-04-26T03:17:36.411Z,73.20
2019-04-26T03:20:11.158Z,74.40
2019-04-26T03:22:48.253Z,74.30
2019-04-26T03:25:47.613Z,74.00
2019-04-26T03:28:32.745Z,73.50
2019-04-26T03:31:11.069Z,73.40
2019-04-26T03:34:22.774Z,73.50
2019-04-26T03:37:21.772Z,77.10
2019-04-26T03:40:07.361Z,76.50
2019-04-26T03:43:08.937Z,75.30
2019-04-26T03:46:01.323Z,75.90
2019-04-26T03:48:57.048Z,76.60
2019-04-26T03:51:45.060Z,75.80
2019-04-26T03:54:19.252Z,75.80
2019-04-26T03:57:07.485Z,77.10
2019-04-26T04:00:20.081Z,77.40
2019-04-26T04:03:26.768Z,76.70
2019-04-26T04:05:59.492Z,76.60
2019-04-26T04:08:38.500Z,78.00
2019-04-26T04:11:12.511Z,77.60
2019-04-26T04:14:11.678Z,77.20
2019-04-26T04:17:02.275Z,77.10
2019-04-26T04:20:06.751Z,77.90
2019-04-26T04:22:41.807Z,77.40
2019-04-26T04:25:16.234Z,77.10
2019-04-26T04:28:03.149Z,77.40
2019-04-26T04:31:11.964Z,77.60
2019-04-26T04:34:12.836Z,77.80
2019-04-26T04:36:53.285Z,83.70
2019-04-26T04:39:44.405Z,83.30
2019-04-26T04:43:09.871Z,79.50
2019-04-26T04:46:03.129Z,80.10
2019-04-26T04:49:09.733Z,79.80
2019-04-26T04:52:10.466Z,80.30
2019-04-26T04:54:44.709Z,81.70
2019-04-26T04:57:33.345Z,82.10
2019-04-26T05:00:17.617Z,83.10
2019-04-26T05:03:23.057Z,83.00
2019-04-26T05:06:20.209Z,84.00
2019-04-26T05:09:13.320Z,85.40
2019-04-26T05:12:09.416Z,85.70
2019-04-26T05:15:07.339Z,84.10
2019-04-26T05:17:53.688Z,84.20
2019-04-26T05:20:47.163Z,84.90
2019-04-26T05:23:38.675Z,85.20
2019-04-26T05:26:51.690Z,84.10
2019-04-26T05:29:54.717Z,86.20
2019-04-26T05:32:58.470Z,84.70
2019-04-26T05:36:04.108Z,85.70
2019-04-26T05:39:10.489Z,85.00
2019-04-26T05:42:12.498Z,82.50
2019-04-26T05:45:26.179Z,85.70
2019-04-26T05:48:14.277Z,84.90
2019-04-26T05:51:20.823Z,85.40
2019-04-26T05:54:54.038Z,84.10
2019-04-26T05:57:42.745Z,83.90
2019-04-26T06:00:29.313Z,85.90
2019-04-26T06:03:23.182Z,85.60
2019-04-26T06:06:26.232Z,85.10
2019-04-26T06:09:30.756Z,86.90
2019-04-26T06:12:15.198Z,87.10
2019-04-26T06:15:16.754Z,87.90
2019-04-26T06:18:32.876Z,87.90
2019-04-26T06:21:30.061Z,87.40
2019-04-26T06:24:06.132Z,88.50
2019-04-26T06:27:10.994Z,88.50
2019-04-26T06:29:54.081Z,88.00
2019-04-26T06:32:35.962Z,88.70
2019-04-26T06:35:15.183Z,87.40
2019-04-26T06:38:08.795Z,87.30
2019-04-26T06:41:02.593Z,87.20
2019-04-26T06:43:40.980Z,87.00
2019-04-26T06:46:53.320Z,85.80
2019-04-26T06:49:53.503Z,84.30
2019-04-26T06:52:26.440Z,83.70
2019-04-26T06:55:26.016Z,83.20
2019-04-26T06:58:37.093Z,83.40
2019-04-26T07:01:22.056Z,82.80
2019-04-26T07:04:32.500Z,82.80
2019-04-26T07:07:59.256Z,80.90
2019-04-26T07:11:31.248Z,81.20
2019-04-26T07:14:28.232Z,81.70
2019-04-26T07:17:04.798Z,81.50
2019-04-26T07:20:15.861Z,79.50
2019-04-26T07:23:15.104Z,79.40
2019-04-26T07:26:15.797Z,80.20
2019-04-26T07:29:05.299Z,80.30
2019-04-26T07:31:56.160Z,80.50
2019-04-26T07:34:45.364Z,79.60
2019-04-26T07:38:20.648Z,80.50
2019-04-26T07:41:34.580Z,80.40
2019-04-26T07:44:29.233Z,75.60
2019-04-26T07:47:25.858Z,76.90
2019-04-26T07:50:30.331Z,76.70
2019-04-26T07:53:11.261Z,75.20
2019-04-26T07:55:57.157Z,76.20
2019-04-26T07:58:54.430Z,74.50
2019-04-26T08:02:11.219Z,72.60
2019-04-26T08:04:47.217Z,72.10
2019-04-26T08:07:22.740Z,73.40
2019-04-26T08:10:06.301Z,74.10
2019-04-26T08:12:38.507Z,71.20
2019-04-26T08:15:43.934Z,69.80
2019-04-26T08:18:20.208Z,70.10
2019-04-26T08:21:17.356Z,68.70
2019-04-26T08:24:11.072Z,68.10
2019-04-26T08:26:43.972Z,67.40
2019-04-26T08:29:16.837Z,64.60
2019-04-26T08:31:53.405Z,65.90
2019-04-26T08:34:28.523Z,66.90
2019-04-26T08:37:06.720Z,66.60
2019-04-26T08:39:45.496Z,68.40
2019-04-26T08:42:18.045Z,66.40
2019-04-26T08:44:56.931Z,68.50
2019-04-26T08:47:53.553Z,66.90
2019-04-26T08:50:31.495Z,66.40
2019-04-26T08:53:03.804Z,68.60
2019-04-26T08:55:36.125Z,70.70
2019-04-26T08:58:10.938Z,68.60
2019-04-26T09:00:51.310Z,68.90
2019-04-26T09:03:42.441Z,70.20
2019-04-26T09:06:26.082Z,70.50
2019-04-26T09:08:58.544Z,71.90
2019-04-26T09:11:33.831Z,72.50
2019-04-26T09:14:04.567Z,73.50
2019-04-26T09:16:35.449Z,73.90
2019-04-26T09:19:05.653Z,74.00
2019-04-26T09:21:47.517Z,74.40
2019-04-26T09:24:27.688Z,75.30
2019-04-26T09:27:21.083Z,74.60
2019-04-26T09:29:56.730Z,75.90
2019-04-26T09:32:36.566Z,75.40
2019-04-26T09:35:07.138Z,76.80
2019-04-26T09:37:37.223Z,78.20
2019-04-26T09:40:10.495Z,79.70
2019-04-26T09:42:51.773Z,79.10
2019-04-26T09:45:31.564Z,79.00
2019-04-26T09:48:05.372Z,77.90
2019-04-26T09:50:41.949Z,77.70
2019-04-26T09:53:11.901Z,74.30
2019-04-26T09:55:41.707Z,75.00
2019-04-26T09:58:11.521Z,75.10
2019-04-26T10:00:44.051Z,73.10
2019-04-26T10:03:13.153Z,74.60
2019-04-26T10:05:43.001Z,74.70
2019-04-26T10:08:14.488Z,75.40
2019-04-26T10:10:44.208Z,74.20
2019-04-26T10:13:35.598Z,73.70
2019-04-26T10:16:24.829Z,73.60
2019-04-26T10:19:01.097Z,72.60
2019-04-26T10:21:31.136Z,73.30
2019-04-26T10:24:00.950Z,73.30
2019-04-26T10:26:30.700Z,73.90
2019-04-26T10:29:00.514Z,75.30
2019-04-26T10:31:30.709Z,74.30
2019-04-26T10:34:00.465Z,74.00
2019-04-26T10:36:31.479Z,74.00
2019-04-26T10:39:01.383Z,75.30
2019-04-26T10:41:33.036Z,75.00
2019-04-26T10:44:03.252Z,73.10
2019-04-26T10:46:32.980Z,73.90
2019-04-26T10:49:12.095Z,72.20
2019-04-26T10:51:43.008Z,72.50
2019-04-26T10:54:17.410Z,73.50
2019-04-26T10:56:55.260Z,73.90
2019-04-26T10:59:39.971Z,73.80
2019-04-26T11:02:11.859Z,73.00
2019-04-26T11:04:42.854Z,73.70
2019-04-26T11:07:12.992Z,74.00
2019-04-26T11:09:43.215Z,73.70
2019-04-26T11:12:15.849Z,72.60
2019-04-26T11:14:45.734Z,74.30
2019-04-26T11:17:17.730Z,74.10
2019-04-26T11:19:48.057Z,75.70
2019-04-26T11:22:28.576Z,77.80
2019-04-26T11:24:50.143Z,78.10
2019-04-26T11:27:20.907Z,78.70
2019-04-26T11:29:53.921Z,78.40
2019-04-26T11:32:22.113Z,78.70
2019-04-26T11:34:54.528Z,80.70
2019-04-26T11:37:23.633Z,80.60
2019-04-26T11:39:53.387Z,80.50
2019-04-26T11:42:23.187Z,80.80
2019-04-26T11:44:52.913Z,80.40
2019-04-26T11:47:22.635Z,80.60
2019-04-26T11:49:53.511Z,80.60
2019-04-26T11:52:23.371Z,79.90
2019-04-26T11:54:55.132Z,80.00
2019-04-26T11:57:24.626Z,79.20
2019-04-26T11:59:54.439Z,77.40
2019-04-26T12:02:24.271Z,77.40
2019-04-26T12:05:15.331Z,77.40
2019-04-26T12:07:55.050Z,77.30
2019-04-26T12:10:27.168Z,77.00
2019-04-26T12:13:05.618Z,77.30
2019-04-26T12:15:30.367Z,77.50
2019-04-26T12:18:01.128Z,77.40
2019-04-26T12:20:30.915Z,78.70
2019-04-26T12:23:00.646Z,77.80
2019-04-26T12:25:31.178Z,77.60
2019-04-26T12:28:02.030Z,77.90
2019-04-26T12:30:33.708Z,78.20
2019-04-26T12:33:03.437Z,77.80
2019-04-26T12:35:33.354Z,75.80
2019-04-26T12:38:03.241Z,75.80
2019-04-26T12:40:33.316Z,77.30
2019-04-26T12:43:03.132Z,77.30
2019-04-26T12:45:47.339Z,76.90
2019-04-26T12:48:19.211Z,77.20
2019-04-26T12:50:49.747Z,76.60
2019-04-26T12:53:19.481Z,76.80
2019-04-26T12:55:53.063Z,77.30
2019-04-26T12:58:20.648Z,77.10
2019-04-26T13:00:54.207Z,77.30
2019-04-26T13:03:25.055Z,76.30
2019-04-26T13:05:57.703Z,77.70
2019-04-26T13:08:25.297Z,77.00
2019-04-26T13:11:14.918Z,77.10
2019-04-26T13:13:50.977Z,77.30
2019-04-26T13:16:27.837Z,76.50
2019-04-26T13:18:58.070Z,76.90
2019-04-26T13:21:27.905Z,75.90
2019-04-26T13:24:00.299Z,76.40
2019-04-26T13:26:30.311Z,77.10
2019-04-26T13:29:00.649Z,76.60
2019-04-26T13:31:31.767Z,75.80
2019-04-26T13:34:02.841Z,75.60
2019-04-26T13:36:34.806Z,75.90
2019-04-26T13:39:09.238Z,76.60
2019-04-26T13:41:40.230Z,77.40
2019-04-26T13:44:10.920Z,76.50
2019-04-26T13:46:53.064Z,76.60
2019-04-26T13:49:36.156Z,77.40
2019-04-26T13:52:06.405Z,76.60
2019-04-26T13:54:36.172Z,76.00
2019-04-26T13:57:09.703Z,75.10
2019-04-26T13:59:37.733Z,75.90
2019-04-26T14:02:11.608Z,76.80
2019-04-26T14:04:41.086Z,77.10
2019-04-26T14:07:10.749Z,77.50
2019-04-26T14:09:41.232Z,77.60
2019-04-26T14:12:18.852Z,78.30
2019-04-26T14:14:42.563Z,77.90
2019-04-26T14:17:12.312Z,78.70
2019-04-26T14:19:45.375Z,78.50
2019-04-26T14:22:15.536Z,78.50
2019-04-26T14:24:53.031Z,79.10
2019-04-26T14:27:27.017Z,79.30
2019-04-26T14:29:56.751Z,78.90
2019-04-26T14:32:26.863Z,78.60
2019-04-26T14:34:56.900Z,78.90
2019-04-26T14:37:26.827Z,77.70
2019-04-26T14:39:59.222Z,77.70
2019-04-26T14:42:34.241Z,77.50
2019-04-26T14:45:02.238Z,78.60
2019-04-26T14:47:32.008Z,78.90
2019-04-26T14:50:13.389Z,78.40
2019-04-26T14:52:33.327Z,78.80
2019-04-26T14:55:05.929Z,79.20
2019-04-26T14:57:34.757Z,79.40
2019-04-26T15:00:06.923Z,79.50
2019-04-26T15:03:03.284Z,79.60
2019-04-26T15:05:51.320Z,80.60
2019-04-26T15:08:22.521Z,80.90
2019-04-26T15:10:57.673Z,81.60
2019-04-26T15:13:24.039Z,82.10
2019-04-26T15:15:53.766Z,82.30
2019-04-26T15:18:23.537Z,82.30
2019-04-26T15:20:56.951Z,82.80
2019-04-26T15:23:26.505Z,83.70
2019-04-26T15:25:58.519Z,83.60
2019-04-26T15:28:27.744Z,84.10
2019-04-26T15:30:57.640Z,84.30
2019-04-26T15:33:27.543Z,85.10
2019-04-26T15:35:58.079Z,84.80
2019-04-26T15:38:27.986Z,84.60
2019-04-26T15:41:11.600Z,83.90
2019-04-26T15:43:46.784Z,83.40
2019-04-26T15:46:24.939Z,83.70
2019-04-26T15:49:09.555Z,83.20
2019-04-26T15:51:39.519Z,82.30
2019-04-26T15:54:09.641Z,82.50
2019-04-26T15:56:39.445Z,82.10
2019-04-26T15:59:09.226Z,82.50
2019-04-26T16:01:41.821Z,82.40
2019-04-26T16:04:13.338Z,82.50
2019-04-26T16:06:44.968Z,83.50
2019-04-26T16:09:19.637Z,83.10
2019-04-26T16:11:49.477Z,83.20
2019-04-26T16:14:16.475Z,83.20
2019-04-26T16:16:46.233Z,84.90
2019-04-26T16:19:16.036Z,84.00
2019-04-26T16:21:48.251Z,84.10
2019-04-26T16:24:17.305Z,82.60
2019-04-26T16:26:54.050Z,83.10
2019-04-26T16:29:38.660Z,82.90
2019-04-26T16:32:27.902Z,82.60
2019-04-26T16:34:57.659Z,82.00
2019-04-26T16:37:28.321Z,82.00
2019-04-26T16:39:58.079Z,81.80
2019-04-26T16:42:28.009Z,81.40
2019-04-26T16:45:04.008Z,81.10
2019-04-26T16:47:29.737Z,81.80
2019-04-26T16:50:02.052Z,82.20
2019-04-26T16:52:33.712Z,82.10
2019-04-26T16:55:04.348Z,81.70
2019-04-26T16:57:34.431Z,81.90
2019-04-26T17:00:05.158Z,82.40
2019-04-26T17:02:37.019Z,81.50
2019-04-26T17:05:19.146Z,80.80
2019-04-26T17:07:39.582Z,80.70
2019-04-26T17:10:09.836Z,80.70
2019-04-26T17:12:39.932Z,80.10
2019-04-26T17:15:10.175Z,79.60
2019-04-26T17:17:41.240Z,80.00
2019-04-26T17:20:12.003Z,79.10
2019-04-26T17:23:00.804Z,78.80
2019-04-26T17:25:59.035Z,79.00
2019-04-26T17:28:29.056Z,78.70
2019-04-26T17:30:59.030Z,78.60
2019-04-26T17:33:29.215Z,79.20
2019-04-26T17:35:59.548Z,78.70
2019-04-26T17:38:31.164Z,79.00
2019-04-26T17:41:01.219Z,79.00
2019-04-26T17:43:30.957Z,79.20
2019-04-26T17:46:01.182Z,80.20
2019-04-26T17:48:33.607Z,80.60
2019-04-26T17:51:02.660Z,81.10
2019-04-26T17:53:33.727Z,80.00
2019-04-26T17:56:03.748Z,80.50
2019-04-26T17:58:38.671Z,79.60
2019-04-26T18:01:05.568Z,80.00
2019-04-26T18:03:36.516Z,80.90
2019-04-26T18:06:09.491Z,81.20
2019-04-26T18:08:45.394Z,81.40
2019-04-26T18:11:18.985Z,82.50
2019-04-26T18:13:41.652Z,83.00
2019-04-26T18:16:11.467Z,82.70
2019-04-26T18:18:59.075Z,82.90
2019-04-26T18:21:41.111Z,83.30
2019-04-26T18:24:10.913Z,83.20
2019-04-26T18:26:41.188Z,82.60
2019-04-26T18:29:13.141Z,83.20
2019-04-26T18:31:43.818Z,83.60
2019-04-26T18:34:13.895Z,83.20
2019-04-26T18:36:43.783Z,83.20
2019-04-26T18:39:13.511Z,83.20
2019-04-26T18:41:43.523Z,83.30
2019-04-26T18:44:13.803Z,83.30
2019-04-26T18:46:54.875Z,85.20
2019-04-26T18:49:26.948Z,86.30
2019-04-26T18:51:56.263Z,87.30
2019-04-26T18:54:47.942Z,85.80
2019-04-26T18:57:17.235Z,87.10
2019-04-26T18:59:51.164Z,86.70
2019-04-26T19:02:20.528Z,88.40
2019-04-26T19:04:50.298Z,89.50
2019-04-26T19:07:31.497Z,89.90
2019-04-26T19:10:04.648Z,90.10
2019-04-26T19:12:26.935Z,90.80
2019-04-26T19:15:07.827Z,90.60
2019-04-26T19:17:43.514Z,91.40
2019-04-26T19:20:33.877Z,91.40
2019-04-26T19:23:05.457Z,91.40
2019-04-26T19:25:40.555Z,92.10
2019-04-26T19:28:08.308Z,92.60
2019-04-26T19:30:39.957Z,92.50
2019-04-26T19:33:16.598Z,92.90
2019-04-26T19:35:44.092Z,92.90
2019-04-26T19:38:14.750Z,93.70
2019-04-26T19:40:47.839Z,93.10
2019-04-26T19:43:28.127Z,94.30
2019-04-26T19:46:01.698Z,94.10
2019-04-26T19:48:55.291Z,94.30
2019-04-26T19:51:38.471Z,94.50
2019-04-26T19:54:14.792Z,93.80
2019-04-26T19:56:51.218Z,94.30
2019-04-26T19:59:21.925Z,94.50
2019-04-26T20:01:55.236Z,94.40
2019-04-26T20:04:30.318Z,93.70
2019-04-26T20:06:55.492Z,94.10
2019-04-26T20:09:26.583Z,94.10
2019-04-26T20:11:58.105Z,94.30
2019-04-26T20:14:39.822Z,93.60
2019-04-26T20:17:01.659Z,93.60
2019-04-26T20:19:36.839Z,94.10
2019-04-26T20:22:03.624Z,94.30
2019-04-26T20:24:33.891Z,94.60
2019-04-26T20:27:03.751Z,94.80
2019-04-26T20:29:33.806Z,94.50
2019-04-26T20:32:23.977Z,94.80
2019-04-26T20:35:06.916Z,94.70
2019-04-26T20:37:37.054Z,95.00
2019-04-26T20:40:18.462Z,94.40
2019-04-26T20:42:39.276Z,94.60
2019-04-26T20:45:13.526Z,94.90
2019-04-26T20:47:41.832Z,95.30
2019-04-26T20:50:13.937Z,95.40
2019-04-26T20:52:45.325Z,95.60
2019-04-26T20:55:15.496Z,95.80
2019-04-26T20:57:45.612Z,95.60
2019-04-26T21:00:16.027Z,96.00
2019-04-26T21:02:46.243Z,95.50
2019-04-26T21:05:16.080Z,95.90
2019-04-26T21:07:49.964Z,96.30
2019-04-26T21:10:21.776Z,96.30
2019-04-26T21:12:52.275Z,96.70
2019-04-26T21:15:24.011Z,96.60
2019-04-26T21:17:52.493Z,96.40
2019-04-26T21:20:23.328Z,96.80
2019-04-26T21:22:53.125Z,96.60
2019-04-26T21:25:35.355Z,95.90
2019-04-26T21:28:13.503Z,96.50
2019-04-26T21:31:17.683Z,95.90
2019-04-26T21:34:12.493Z,96.50
2019-04-26T21:36:59.126Z,96.00
2019-04-26T21:39:35.289Z,96.10
2019-04-26T21:42:05.901Z,96.10
2019-04-26T21:44:35.654Z,96.50
2019-04-26T21:47:05.468Z,96.90
2019-04-26T21:49:37.994Z,97.60
2019-04-26T21:52:07.752Z,97.90
2019-04-26T21:54:38.520Z,97.90
2019-04-26T21:57:08.423Z,98.20
2019-04-26T21:59:40.840Z,98.00
2019-04-26T22:02:10.356Z,97.40
2019-04-26T22:04:40.545Z,97.60
2019-04-26T22:07:10.604Z,97.40
2019-04-26T22:10:05.279Z,97.10
2019-04-26T22:12:35.423Z,97.70
2019-04-26T22:15:35.875Z,97.80
2019-04-26T22:18:14.278Z,98.30
2019-04-26T22:20:51.015Z,98.50
2019-04-26T22:23:47.676Z,98.40
2019-04-26T22:26:16.664Z,98.40
2019-04-26T22:28:46.903Z,98.20
2019-04-26T22:31:17.864Z,97.70
2019-04-26T22:33:47.916Z,97.90
2019-04-26T22:36:17.707Z,97.90
2019-04-26T22:38:47.508Z,97.70
2019-04-26T22:41:17.259Z,97.70
2019-04-26T22:43:54.028Z,97.60
2019-04-26T22:46:48.781Z,97.10
2019-04-26T22:49:16.489Z,96.90
2019-04-26T22:51:46.228Z,96.80
2019-04-26T22:54:17.376Z,96.90
2019-04-26T22:56:47.103Z,97.50
2019-04-26T22:59:16.862Z,97.40
2019-04-26T23:01:48.749Z,97.60
2019-04-26T23:04:23.610Z,97.60
2019-04-26T23:06:49.965Z,97.50
2019-04-26T23:09:20.712Z,97.20
2019-04-26T23:11:57.644Z,97.30
2019-04-26T23:14:34.644Z,97.10
2019-04-26T23:17:31.296Z,97.10
2019-04-26T23:20:14.014Z,96.90
2019-04-26T23:22:44.814Z,96.90
2019-04-26T23:25:15.027Z,97.40
2019-04-26T23:27:45.069Z,97.50
2019-04-26T23:30:16.712Z,97.10
2019-04-26T23:32:48.465Z,97.20
2019-04-26T23:35:18.600Z,97.20
2019-04-26T23:37:48.668Z,97.40
2019-04-26T23:40:20.747Z,97.40
2019-04-26T23:42:51.587Z,97.20
2019-04-26T23:45:23.121Z,97.00
2019-04-26T23:47:53.209Z,96.90
2019-04-26T23:50:25.536Z,96.50
2019-04-26T23:52:54.513Z,96.50
2019-04-26T23:55:24.666Z,96.50
2019-04-26T23:57:54.434Z,96.50
